sensor_id;sensor_type;location;lat;lon;timestamp;temperature;humidity
43561;DHT22;32305;46.410;17.394;2023-01-25T00:01:40;20.50;41.20
43561;DHT22;32305;46.410;17.394;2023-01-25T00:04:07;20.50;41.20
43561;DHT22;32305;46.410;17.394;2023-01-25T00:06:34;20.50;41.20
43561;DHT22;32305;46.410;17.394;2023-01-25T00:09:02;20.50;41.20
43561;DHT22;32305;46.410;17.394;2023-01-25T00:11:29;20.50;41.20
43561;DHT22;32305;46.410;17.394;2023-01-25T00:13:56;20.50;41.20
43561;DHT22;32305;46.410;17.394;2023-01-25T00:16:24;20.50;41.20
43561;DHT22;32305;46.410;17.394;2023-01-25T00:18:51;20.50;41.20
43561;DHT22;32305;46.410;17.394;2023-01-25T00:21:20;20.50;41.20
43561;DHT22;32305;46.410;17.394;2023-01-25T00:23:47;20.40;41.10
43561;DHT22;32305;46.410;17.394;2023-01-25T00:26:15;20.50;41.20
43561;DHT22;32305;46.410;17.394;2023-01-25T00:28:42;20.40;41.10
43561;DHT22;32305;46.410;17.394;2023-01-25T00:31:20;20.40;41.10
43561;DHT22;32305;46.410;17.394;2023-01-25T00:33:56;20.40;41.10
43561;DHT22;32305;46.410;17.394;2023-01-25T00:36:40;20.50;41.10
43561;DHT22;32305;46.410;17.394;2023-01-25T00:39:11;20.40;41.10
43561;DHT22;32305;46.410;17.394;2023-01-25T00:41:39;20.40;41.00
43561;DHT22;32305;46.410;17.394;2023-01-25T00:44:06;20.40;41.00
43561;DHT22;32305;46.410;17.394;2023-01-25T00:46:34;20.40;41.00
43561;DHT22;32305;46.410;17.394;2023-01-25T00:49:01;20.40;41.00
43561;DHT22;32305;46.410;17.394;2023-01-25T00:51:28;20.40;41.00
43561;DHT22;32305;46.410;17.394;2023-01-25T00:53:55;20.40;41.00
43561;DHT22;32305;46.410;17.394;2023-01-25T00:56:22;20.40;41.00
43561;DHT22;32305;46.410;17.394;2023-01-25T00:58:49;20.40;41.00
43561;DHT22;32305;46.410;17.394;2023-01-25T01:01:16;20.40;41.00
43561;DHT22;32305;46.410;17.394;2023-01-25T01:03:44;20.40;41.00
43561;DHT22;32305;46.410;17.394;2023-01-25T01:06:11;20.40;41.00
43561;DHT22;32305;46.410;17.394;2023-01-25T01:08:40;20.40;41.00
43561;DHT22;32305;46.410;17.394;2023-01-25T01:11:10;20.40;41.00
43561;DHT22;32305;46.410;17.394;2023-01-25T01:13:38;20.40;41.00
43561;DHT22;32305;46.410;17.394;2023-01-25T01:16:07;20.40;41.00
43561;DHT22;32305;46.410;17.394;2023-01-25T01:18:43;20.40;41.00
43561;DHT22;32305;46.410;17.394;2023-01-25T01:21:11;20.40;41.00
43561;DHT22;32305;46.410;17.394;2023-01-25T01:23:39;20.40;40.90
43561;DHT22;32305;46.410;17.394;2023-01-25T01:26:09;20.40;40.90
43561;DHT22;32305;46.410;17.394;2023-01-25T01:28:36;20.40;40.90
43561;DHT22;32305;46.410;17.394;2023-01-25T01:31:10;20.40;40.90
43561;DHT22;32305;46.410;17.394;2023-01-25T01:33:37;20.40;40.80
43561;DHT22;32305;46.410;17.394;2023-01-25T01:36:14;20.40;40.80
43561;DHT22;32305;46.410;17.394;2023-01-25T01:38:42;20.40;40.80
43561;DHT22;32305;46.410;17.394;2023-01-25T01:41:10;20.40;40.80
43561;DHT22;32305;46.410;17.394;2023-01-25T01:43:37;20.40;40.80
43561;DHT22;32305;46.410;17.394;2023-01-25T01:46:12;20.40;40.80
43561;DHT22;32305;46.410;17.394;2023-01-25T01:48:48;20.40;40.80
43561;DHT22;32305;46.410;17.394;2023-01-25T01:51:25;20.40;40.80
43561;DHT22;32305;46.410;17.394;2023-01-25T01:54:02;20.40;40.80
43561;DHT22;32305;46.410;17.394;2023-01-25T01:56:35;20.30;40.70
43561;DHT22;32305;46.410;17.394;2023-01-25T01:59:04;20.40;40.80
43561;DHT22;32305;46.410;17.394;2023-01-25T02:01:32;20.30;40.70
43561;DHT22;32305;46.410;17.394;2023-01-25T02:03:59;20.40;40.70
43561;DHT22;32305;46.410;17.394;2023-01-25T02:06:49;20.30;40.70
43561;DHT22;32305;46.410;17.394;2023-01-25T02:09:20;20.30;40.70
43561;DHT22;32305;46.410;17.394;2023-01-25T02:11:50;20.30;40.70
43561;DHT22;32305;46.410;17.394;2023-01-25T02:14:18;20.30;40.60
43561;DHT22;32305;46.410;17.394;2023-01-25T02:16:45;20.30;40.60
43561;DHT22;32305;46.410;17.394;2023-01-25T02:19:20;20.30;40.60
43561;DHT22;32305;46.410;17.394;2023-01-25T02:21:52;20.30;40.60
43561;DHT22;32305;46.410;17.394;2023-01-25T02:24:29;20.30;40.60
43561;DHT22;32305;46.410;17.394;2023-01-25T02:26:57;20.30;40.60
43561;DHT22;32305;46.410;17.394;2023-01-25T02:29:25;20.30;40.60
43561;DHT22;32305;46.410;17.394;2023-01-25T02:32:01;20.30;40.60
43561;DHT22;32305;46.410;17.394;2023-01-25T02:34:28;20.30;40.60
43561;DHT22;32305;46.410;17.394;2023-01-25T02:36:55;20.30;40.60
43561;DHT22;32305;46.410;17.394;2023-01-25T02:39:22;20.30;40.60
43561;DHT22;32305;46.410;17.394;2023-01-25T02:41:52;20.30;40.60
43561;DHT22;32305;46.410;17.394;2023-01-25T02:44:23;20.30;40.60
43561;DHT22;32305;46.410;17.394;2023-01-25T02:46:51;20.30;40.60
43561;DHT22;32305;46.410;17.394;2023-01-25T02:49:18;20.30;40.60
43561;DHT22;32305;46.410;17.394;2023-01-25T02:51:48;20.30;40.60
43561;DHT22;32305;46.410;17.394;2023-01-25T02:54:17;20.20;40.50
43561;DHT22;32305;46.410;17.394;2023-01-25T02:56:44;20.30;40.60
43561;DHT22;32305;46.410;17.394;2023-01-25T02:59:12;20.30;40.60
43561;DHT22;32305;46.410;17.394;2023-01-25T03:01:41;20.20;40.50
43561;DHT22;32305;46.410;17.394;2023-01-25T03:04:09;20.30;40.50
43561;DHT22;32305;46.410;17.394;2023-01-25T03:06:37;20.30;40.50
43561;DHT22;32305;46.410;17.394;2023-01-25T03:09:06;20.30;40.60
43561;DHT22;32305;46.410;17.394;2023-01-25T03:11:34;20.30;41.10
43561;DHT22;32305;46.410;17.394;2023-01-25T03:14:01;20.30;40.50
43561;DHT22;32305;46.410;17.394;2023-01-25T03:16:30;20.20;40.50
43561;DHT22;32305;46.410;17.394;2023-01-25T03:18:57;20.30;40.50
43561;DHT22;32305;46.410;17.394;2023-01-25T03:21:25;20.30;40.50
43561;DHT22;32305;46.410;17.394;2023-01-25T03:23:58;20.30;40.50
43561;DHT22;32305;46.410;17.394;2023-01-25T03:26:27;20.30;40.50
43561;DHT22;32305;46.410;17.394;2023-01-25T03:28:54;20.30;40.50
43561;DHT22;32305;46.410;17.394;2023-01-25T03:31:22;20.30;40.50
43561;DHT22;32305;46.410;17.394;2023-01-25T03:33:50;20.30;40.40
43561;DHT22;32305;46.410;17.394;2023-01-25T03:36:17;20.30;40.40
43561;DHT22;32305;46.410;17.394;2023-01-25T03:38:45;20.30;40.40
43561;DHT22;32305;46.410;17.394;2023-01-25T03:41:12;20.30;40.40
43561;DHT22;32305;46.410;17.394;2023-01-25T03:43:40;20.30;40.40
43561;DHT22;32305;46.410;17.394;2023-01-25T03:46:07;20.30;40.40
43561;DHT22;32305;46.410;17.394;2023-01-25T03:48:35;20.30;40.40
43561;DHT22;32305;46.410;17.394;2023-01-25T03:51:02;20.30;40.40
43561;DHT22;32305;46.410;17.394;2023-01-25T03:53:30;20.30;40.40
43561;DHT22;32305;46.410;17.394;2023-01-25T03:56:04;20.30;40.40
43561;DHT22;32305;46.410;17.394;2023-01-25T03:58:37;20.30;40.40
43561;DHT22;32305;46.410;17.394;2023-01-25T04:01:06;20.30;40.40
43561;DHT22;32305;46.410;17.394;2023-01-25T04:03:34;20.30;40.40
43561;DHT22;32305;46.410;17.394;2023-01-25T04:06:02;20.30;40.40
43561;DHT22;32305;46.410;17.394;2023-01-25T04:08:30;20.30;40.40
43561;DHT22;32305;46.410;17.394;2023-01-25T04:11:03;20.30;40.40
43561;DHT22;32305;46.410;17.394;2023-01-25T04:13:31;20.20;40.30
43561;DHT22;32305;46.410;17.394;2023-01-25T04:16:08;20.30;40.40
43561;DHT22;32305;46.410;17.394;2023-01-25T04:18:35;20.30;40.40
43561;DHT22;32305;46.410;17.394;2023-01-25T04:21:02;20.30;40.40
43561;DHT22;32305;46.410;17.394;2023-01-25T04:23:30;20.20;40.30
43561;DHT22;32305;46.410;17.394;2023-01-25T04:26:02;20.20;40.40
43561;DHT22;32305;46.410;17.394;2023-01-25T04:28:32;20.20;40.30
43561;DHT22;32305;46.410;17.394;2023-01-25T04:31:00;20.20;40.30
43561;DHT22;32305;46.410;17.394;2023-01-25T04:33:29;20.20;40.40
43561;DHT22;32305;46.410;17.394;2023-01-25T04:35:56;20.20;40.30
43561;DHT22;32305;46.410;17.394;2023-01-25T04:38:24;20.20;40.30
43561;DHT22;32305;46.410;17.394;2023-01-25T04:40:51;20.20;40.40
43561;DHT22;32305;46.410;17.394;2023-01-25T04:43:20;20.20;40.30
43561;DHT22;32305;46.410;17.394;2023-01-25T04:45:47;20.20;40.30
43561;DHT22;32305;46.410;17.394;2023-01-25T04:48:14;20.20;40.30
43561;DHT22;32305;46.410;17.394;2023-01-25T04:50:42;20.20;40.30
43561;DHT22;32305;46.410;17.394;2023-01-25T04:53:10;20.20;40.30
43561;DHT22;32305;46.410;17.394;2023-01-25T04:55:37;20.20;40.30
43561;DHT22;32305;46.410;17.394;2023-01-25T04:58:05;20.20;40.30
43561;DHT22;32305;46.410;17.394;2023-01-25T05:00:32;20.20;40.30
43561;DHT22;32305;46.410;17.394;2023-01-25T05:02:59;20.20;40.30
43561;DHT22;32305;46.410;17.394;2023-01-25T05:05:27;20.20;40.30
43561;DHT22;32305;46.410;17.394;2023-01-25T05:07:54;20.20;40.30
43561;DHT22;32305;46.410;17.394;2023-01-25T05:10:21;20.20;40.30
43561;DHT22;32305;46.410;17.394;2023-01-25T05:12:48;20.20;40.30
43561;DHT22;32305;46.410;17.394;2023-01-25T05:15:15;20.20;40.30
43561;DHT22;32305;46.410;17.394;2023-01-25T05:17:43;20.20;40.30
43561;DHT22;32305;46.410;17.394;2023-01-25T05:20:10;20.20;40.20
43561;DHT22;32305;46.410;17.394;2023-01-25T05:22:38;20.20;40.30
43561;DHT22;32305;46.410;17.394;2023-01-25T05:25:05;20.20;40.20
43561;DHT22;32305;46.410;17.394;2023-01-25T05:27:52;20.20;40.20
43561;DHT22;32305;46.410;17.394;2023-01-25T05:30:19;20.20;40.20
43561;DHT22;32305;46.410;17.394;2023-01-25T05:32:48;20.20;40.30
43561;DHT22;32305;46.410;17.394;2023-01-25T05:35:16;20.20;40.20
43561;DHT22;32305;46.410;17.394;2023-01-25T05:37:43;20.20;40.20
43561;DHT22;32305;46.410;17.394;2023-01-25T05:40:10;20.20;39.90
43561;DHT22;32305;46.410;17.394;2023-01-25T05:42:38;20.20;39.90
43561;DHT22;32305;46.410;17.394;2023-01-25T05:45:06;20.20;39.80
43561;DHT22;32305;46.410;17.394;2023-01-25T05:47:33;20.20;39.80
43561;DHT22;32305;46.410;17.394;2023-01-25T05:50:01;20.20;39.80
43561;DHT22;32305;46.410;17.394;2023-01-25T05:52:28;20.20;39.80
43561;DHT22;32305;46.410;17.394;2023-01-25T05:54:55;20.20;39.80
43561;DHT22;32305;46.410;17.394;2023-01-25T05:57:22;20.20;39.80
43561;DHT22;32305;46.410;17.394;2023-01-25T05:59:49;20.20;39.80
43561;DHT22;32305;46.410;17.394;2023-01-25T06:02:17;20.20;39.80
43561;DHT22;32305;46.410;17.394;2023-01-25T06:04:44;20.20;39.80
43561;DHT22;32305;46.410;17.394;2023-01-25T06:07:11;20.20;39.70
43561;DHT22;32305;46.410;17.394;2023-01-25T06:09:38;20.20;39.70
43561;DHT22;32305;46.410;17.394;2023-01-25T06:12:05;20.30;39.70
43561;DHT22;32305;46.410;17.394;2023-01-25T06:14:33;20.30;39.70
43561;DHT22;32305;46.410;17.394;2023-01-25T06:17:00;20.30;39.60
43561;DHT22;32305;46.410;17.394;2023-01-25T06:19:27;20.30;39.60
43561;DHT22;32305;46.410;17.394;2023-01-25T06:21:54;20.30;39.60
43561;DHT22;32305;46.410;17.394;2023-01-25T06:24:21;20.30;39.60
43561;DHT22;32305;46.410;17.394;2023-01-25T06:26:49;20.40;39.60
43561;DHT22;32305;46.410;17.394;2023-01-25T06:29:16;20.40;39.60
43561;DHT22;32305;46.410;17.394;2023-01-25T06:31:44;20.50;39.60
43561;DHT22;32305;46.410;17.394;2023-01-25T06:34:11;20.50;39.50
43561;DHT22;32305;46.410;17.394;2023-01-25T06:36:38;20.50;39.50
43561;DHT22;32305;46.410;17.394;2023-01-25T06:39:06;20.60;40.00
43561;DHT22;32305;46.410;17.394;2023-01-25T06:41:37;20.60;39.40
43561;DHT22;32305;46.410;17.394;2023-01-25T06:44:04;20.70;39.60
43561;DHT22;32305;46.410;17.394;2023-01-25T06:46:32;20.70;39.60
43561;DHT22;32305;46.410;17.394;2023-01-25T06:48:59;20.70;39.90
43561;DHT22;32305;46.410;17.394;2023-01-25T06:51:26;20.70;40.10
43561;DHT22;32305;46.410;17.394;2023-01-25T06:53:55;20.80;40.30
43561;DHT22;32305;46.410;17.394;2023-01-25T06:56:22;20.80;40.50
43561;DHT22;32305;46.410;17.394;2023-01-25T06:58:50;20.90;40.50
43561;DHT22;32305;46.410;17.394;2023-01-25T07:01:20;20.90;40.40
43561;DHT22;32305;46.410;17.394;2023-01-25T07:03:52;20.90;40.30
43561;DHT22;32305;46.410;17.394;2023-01-25T07:06:21;21.00;40.50
43561;DHT22;32305;46.410;17.394;2023-01-25T07:08:49;21.10;40.50
43561;DHT22;32305;46.410;17.394;2023-01-25T07:11:16;21.10;40.40
43561;DHT22;32305;46.410;17.394;2023-01-25T07:13:46;21.10;40.30
43561;DHT22;32305;46.410;17.394;2023-01-25T07:16:18;21.20;40.20
43561;DHT22;32305;46.410;17.394;2023-01-25T07:18:46;21.20;40.10
43561;DHT22;32305;46.410;17.394;2023-01-25T07:21:15;21.20;39.90
43561;DHT22;32305;46.410;17.394;2023-01-25T07:23:43;21.20;39.70
43561;DHT22;32305;46.410;17.394;2023-01-25T07:26:19;21.30;39.70
43561;DHT22;32305;46.410;17.394;2023-01-25T07:28:47;21.30;39.70
43561;DHT22;32305;46.410;17.394;2023-01-25T07:31:16;21.30;39.50
43561;DHT22;32305;46.410;17.394;2023-01-25T07:33:48;21.40;39.50
43561;DHT22;32305;46.410;17.394;2023-01-25T07:36:16;21.40;39.40
43561;DHT22;32305;46.410;17.394;2023-01-25T07:38:45;21.40;39.30
43561;DHT22;32305;46.410;17.394;2023-01-25T07:41:12;21.40;39.20
43561;DHT22;32305;46.410;17.394;2023-01-25T07:43:42;21.50;39.30
43561;DHT22;32305;46.410;17.394;2023-01-25T07:46:11;21.50;39.20
43561;DHT22;32305;46.410;17.394;2023-01-25T07:48:39;21.50;39.40
43561;DHT22;32305;46.410;17.394;2023-01-25T07:51:09;21.60;39.70
43561;DHT22;32305;46.410;17.394;2023-01-25T07:53:52;21.60;39.80
43561;DHT22;32305;46.410;17.394;2023-01-25T07:56:22;21.60;39.70
43561;DHT22;32305;46.410;17.394;2023-01-25T07:58:51;21.70;39.80
43561;DHT22;32305;46.410;17.394;2023-01-25T08:01:23;21.70;39.70
43561;DHT22;32305;46.410;17.394;2023-01-25T08:03:50;21.70;39.70
43561;DHT22;32305;46.410;17.394;2023-01-25T08:06:26;21.70;39.70
43561;DHT22;32305;46.410;17.394;2023-01-25T08:08:57;21.80;39.80
43561;DHT22;32305;46.410;17.394;2023-01-25T08:11:27;21.80;39.80
43561;DHT22;32305;46.410;17.394;2023-01-25T08:13:55;21.80;39.60
43561;DHT22;32305;46.410;17.394;2023-01-25T08:16:25;21.80;39.50
43561;DHT22;32305;46.410;17.394;2023-01-25T08:18:54;21.90;39.40
43561;DHT22;32305;46.410;17.394;2023-01-25T08:21:23;21.90;39.50
43561;DHT22;32305;46.410;17.394;2023-01-25T08:23:51;21.90;40.10
43561;DHT22;32305;46.410;17.394;2023-01-25T08:26:18;21.90;39.50
43561;DHT22;32305;46.410;17.394;2023-01-25T08:28:46;21.90;39.50
43561;DHT22;32305;46.410;17.394;2023-01-25T08:31:20;22.00;39.50
43561;DHT22;32305;46.410;17.394;2023-01-25T08:33:48;22.00;39.40
43561;DHT22;32305;46.410;17.394;2023-01-25T08:36:16;22.00;39.30
43561;DHT22;32305;46.410;17.394;2023-01-25T08:38:45;22.00;39.20
43561;DHT22;32305;46.410;17.394;2023-01-25T08:41:16;22.00;39.10
43561;DHT22;32305;46.410;17.394;2023-01-25T08:43:44;22.00;39.20
43561;DHT22;32305;46.410;17.394;2023-01-25T08:46:12;22.00;39.20
43561;DHT22;32305;46.410;17.394;2023-01-25T08:48:40;22.00;39.10
43561;DHT22;32305;46.410;17.394;2023-01-25T08:51:08;22.10;39.00
43561;DHT22;32305;46.410;17.394;2023-01-25T08:53:38;22.10;39.10
43561;DHT22;32305;46.410;17.394;2023-01-25T08:56:07;22.10;39.00
43561;DHT22;32305;46.410;17.394;2023-01-25T08:58:37;22.10;39.00
43561;DHT22;32305;46.410;17.394;2023-01-25T09:01:06;22.10;39.00
43561;DHT22;32305;46.410;17.394;2023-01-25T09:03:36;22.10;39.10
43561;DHT22;32305;46.410;17.394;2023-01-25T09:06:05;22.10;39.20
43561;DHT22;32305;46.410;17.394;2023-01-25T09:08:33;22.20;39.40
43561;DHT22;32305;46.410;17.394;2023-01-25T09:11:02;22.20;39.40
43561;DHT22;32305;46.410;17.394;2023-01-25T09:13:29;22.20;39.30
43561;DHT22;32305;46.410;17.394;2023-01-25T09:16:05;22.20;39.70
43561;DHT22;32305;46.410;17.394;2023-01-25T09:18:35;22.20;39.10
43561;DHT22;32305;46.410;17.394;2023-01-25T09:21:11;22.30;39.00
43561;DHT22;32305;46.410;17.394;2023-01-25T09:23:39;22.30;39.00
43561;DHT22;32305;46.410;17.394;2023-01-25T09:26:17;22.30;38.90
43561;DHT22;32305;46.410;17.394;2023-01-25T09:28:50;22.30;38.90
43561;DHT22;32305;46.410;17.394;2023-01-25T09:31:18;22.40;38.80
43561;DHT22;32305;46.410;17.394;2023-01-25T09:33:50;22.40;38.80
43561;DHT22;32305;46.410;17.394;2023-01-25T09:36:19;22.40;38.90
43561;DHT22;32305;46.410;17.394;2023-01-25T09:38:46;22.40;38.80
43561;DHT22;32305;46.410;17.394;2023-01-25T09:41:39;22.50;38.80
43561;DHT22;32305;46.410;17.394;2023-01-25T09:44:45;22.50;38.70
43561;DHT22;32305;46.410;17.394;2023-01-25T09:47:37;22.50;38.50
43561;DHT22;32305;46.410;17.394;2023-01-25T09:50:35;22.50;38.50
43561;DHT22;32305;46.410;17.394;2023-01-25T09:56:11;22.60;38.40
43561;DHT22;32305;46.410;17.394;2023-01-25T09:58:43;22.60;38.40
43561;DHT22;32305;46.410;17.394;2023-01-25T10:01:19;22.60;39.00
43561;DHT22;32305;46.410;17.394;2023-01-25T10:04:12;22.60;38.90
43561;DHT22;32305;46.410;17.394;2023-01-25T10:06:43;22.60;38.30
43561;DHT22;32305;46.410;17.394;2023-01-25T10:09:38;22.70;38.30
43561;DHT22;32305;46.410;17.394;2023-01-25T10:12:11;22.70;38.20
43561;DHT22;32305;46.410;17.394;2023-01-25T10:14:39;22.70;38.30
43561;DHT22;32305;46.410;17.394;2023-01-25T10:17:39;22.70;38.10
43561;DHT22;32305;46.410;17.394;2023-01-25T10:20:25;22.70;38.00
43561;DHT22;32305;46.410;17.394;2023-01-25T10:23:24;22.70;37.80
43561;DHT22;32305;46.410;17.394;2023-01-25T10:25:57;22.70;37.80
43561;DHT22;32305;46.410;17.394;2023-01-25T10:28:40;22.70;37.70
43561;DHT22;32305;46.410;17.394;2023-01-25T10:31:21;22.70;37.70
43561;DHT22;32305;46.410;17.394;2023-01-25T10:33:52;22.70;37.70
43561;DHT22;32305;46.410;17.394;2023-01-25T10:36:26;22.70;37.70
43561;DHT22;32305;46.410;17.394;2023-01-25T10:38:55;22.70;37.70
43561;DHT22;32305;46.410;17.394;2023-01-25T10:41:38;22.60;37.70
43561;DHT22;32305;46.410;17.394;2023-01-25T10:44:11;22.70;37.80
43561;DHT22;32305;46.410;17.394;2023-01-25T10:47:00;22.70;37.90
43561;DHT22;32305;46.410;17.394;2023-01-25T10:49:51;22.70;37.80
43561;DHT22;32305;46.410;17.394;2023-01-25T10:52:23;22.70;37.80
43561;DHT22;32305;46.410;17.394;2023-01-25T10:55:15;22.70;37.80
43561;DHT22;32305;46.410;17.394;2023-01-25T10:57:54;22.70;37.70
43561;DHT22;32305;46.410;17.394;2023-01-25T11:00:37;22.70;37.70
43561;DHT22;32305;46.410;17.394;2023-01-25T11:03:08;22.80;37.80
43561;DHT22;32305;46.410;17.394;2023-01-25T11:05:53;22.80;37.80
43561;DHT22;32305;46.410;17.394;2023-01-25T11:08:23;22.80;37.70
43561;DHT22;32305;46.410;17.394;2023-01-25T11:10:52;22.80;37.70
43561;DHT22;32305;46.410;17.394;2023-01-25T11:13:28;22.80;37.70
43561;DHT22;32305;46.410;17.394;2023-01-25T11:16:24;22.80;37.60
43561;DHT22;32305;46.410;17.394;2023-01-25T11:18:55;22.90;37.60
43561;DHT22;32305;46.410;17.394;2023-01-25T11:21:31;22.90;37.50
43561;DHT22;32305;46.410;17.394;2023-01-25T11:24:15;22.90;37.40
43561;DHT22;32305;46.410;17.394;2023-01-25T11:26:43;22.90;37.30
43561;DHT22;32305;46.410;17.394;2023-01-25T11:29:17;22.90;37.30
43561;DHT22;32305;46.410;17.394;2023-01-25T11:31:48;22.90;37.40
43561;DHT22;32305;46.410;17.394;2023-01-25T11:34:20;22.90;37.50
43561;DHT22;32305;46.410;17.394;2023-01-25T11:37:11;22.80;37.40
43561;DHT22;32305;46.410;17.394;2023-01-25T11:39:49;22.90;37.50
43561;DHT22;32305;46.410;17.394;2023-01-25T11:42:27;22.90;37.50
43561;DHT22;32305;46.410;17.394;2023-01-25T11:45:39;22.80;37.40
43561;DHT22;32305;46.410;17.394;2023-01-25T11:51:37;22.80;37.40
43561;DHT22;32305;46.410;17.394;2023-01-25T11:54:42;22.80;37.40
43561;DHT22;32305;46.410;17.394;2023-01-25T11:57:47;22.90;37.50
43561;DHT22;32305;46.410;17.394;2023-01-25T12:03:50;22.90;37.50
43561;DHT22;32305;46.410;17.394;2023-01-25T12:06:50;23.00;37.40
43561;DHT22;32305;46.410;17.394;2023-01-25T12:09:49;23.00;37.40
43561;DHT22;32305;46.410;17.394;2023-01-25T12:12:43;23.00;37.40
43561;DHT22;32305;46.410;17.394;2023-01-25T12:15:31;23.00;37.30
43561;DHT22;32305;46.410;17.394;2023-01-25T12:18:27;23.00;37.30
43561;DHT22;32305;46.410;17.394;2023-01-25T12:21:05;23.10;37.50
43561;DHT22;32305;46.410;17.394;2023-01-25T12:23:49;23.10;37.40
43561;DHT22;32305;46.410;17.394;2023-01-25T12:26:43;23.10;37.50
43561;DHT22;32305;46.410;17.394;2023-01-25T12:29:40;23.10;37.40
43561;DHT22;32305;46.410;17.394;2023-01-25T12:32:16;23.10;37.40
43561;DHT22;32305;46.410;17.394;2023-01-25T12:34:54;23.10;37.30
43561;DHT22;32305;46.410;17.394;2023-01-25T12:37:31;23.10;37.30
43561;DHT22;32305;46.410;17.394;2023-01-25T12:40:12;23.10;37.30
43561;DHT22;32305;46.410;17.394;2023-01-25T12:42:51;23.10;37.30
43561;DHT22;32305;46.410;17.394;2023-01-25T12:45:29;23.10;37.30
43561;DHT22;32305;46.410;17.394;2023-01-25T12:48:02;23.10;37.90
43561;DHT22;32305;46.410;17.394;2023-01-25T12:50:40;23.20;37.40
43561;DHT22;32305;46.410;17.394;2023-01-25T12:53:26;23.20;37.40
43561;DHT22;32305;46.410;17.394;2023-01-25T12:55:56;23.10;37.30
43561;DHT22;32305;46.410;17.394;2023-01-25T12:58:40;23.10;37.60
43561;DHT22;32305;46.410;17.394;2023-01-25T13:01:36;23.10;37.80
43561;DHT22;32305;46.410;17.394;2023-01-25T13:04:36;23.10;37.90
43561;DHT22;32305;46.410;17.394;2023-01-25T13:07:24;23.10;38.00
43561;DHT22;32305;46.410;17.394;2023-01-25T13:10:03;23.20;38.20
43561;DHT22;32305;46.410;17.394;2023-01-25T13:12:51;23.20;38.30
43561;DHT22;32305;46.410;17.394;2023-01-25T13:15:41;23.20;38.40
43561;DHT22;32305;46.410;17.394;2023-01-25T13:18:35;23.20;38.30
43561;DHT22;32305;46.410;17.394;2023-01-25T13:21:07;23.30;38.40
43561;DHT22;32305;46.410;17.394;2023-01-25T13:23:39;23.30;38.40
43561;DHT22;32305;46.410;17.394;2023-01-25T13:26:36;23.30;38.30
43561;DHT22;32305;46.410;17.394;2023-01-25T13:29:06;23.30;38.20
43561;DHT22;32305;46.410;17.394;2023-01-25T13:31:54;23.30;38.10
43561;DHT22;32305;46.410;17.394;2023-01-25T13:34:55;23.30;38.30
43561;DHT22;32305;46.410;17.394;2023-01-25T13:37:30;23.30;37.50
43561;DHT22;32305;46.410;17.394;2023-01-25T13:40:04;23.40;37.40
43561;DHT22;32305;46.410;17.394;2023-01-25T13:42:34;23.30;37.20
43561;DHT22;32305;46.410;17.394;2023-01-25T13:45:16;23.40;37.40
43561;DHT22;32305;46.410;17.394;2023-01-25T13:47:59;23.40;37.50
43561;DHT22;32305;46.410;17.394;2023-01-25T13:50:31;23.40;37.50
43561;DHT22;32305;46.410;17.394;2023-01-25T13:53:02;23.40;37.40
43561;DHT22;32305;46.410;17.394;2023-01-25T13:55:42;23.40;37.30
43561;DHT22;32305;46.410;17.394;2023-01-25T13:58:27;23.40;37.20
43561;DHT22;32305;46.410;17.394;2023-01-25T14:01:05;23.40;37.10
43561;DHT22;32305;46.410;17.394;2023-01-25T14:03:40;23.40;37.00
43561;DHT22;32305;46.410;17.394;2023-01-25T14:06:24;23.40;37.00
43561;DHT22;32305;46.410;17.394;2023-01-25T14:08:54;23.40;37.00
43561;DHT22;32305;46.410;17.394;2023-01-25T14:11:24;23.40;37.00
43561;DHT22;32305;46.410;17.394;2023-01-25T14:14:01;23.40;36.90
43561;DHT22;32305;46.410;17.394;2023-01-25T14:16:30;23.40;36.90
43561;DHT22;32305;46.410;17.394;2023-01-25T14:19:20;23.40;36.90
43561;DHT22;32305;46.410;17.394;2023-01-25T14:21:48;23.40;36.80
43561;DHT22;32305;46.410;17.394;2023-01-25T14:24:16;23.40;36.80
43561;DHT22;32305;46.410;17.394;2023-01-25T14:26:46;23.40;36.80
43561;DHT22;32305;46.410;17.394;2023-01-25T14:29:17;23.40;36.80
43561;DHT22;32305;46.410;17.394;2023-01-25T14:32:00;23.40;36.80
43561;DHT22;32305;46.410;17.394;2023-01-25T14:34:27;23.40;36.80
43561;DHT22;32305;46.410;17.394;2023-01-25T14:37:13;23.40;36.70
43561;DHT22;32305;46.410;17.394;2023-01-25T14:39:42;23.40;36.70
43561;DHT22;32305;46.410;17.394;2023-01-25T14:42:10;23.40;36.70
43561;DHT22;32305;46.410;17.394;2023-01-25T14:44:37;23.40;36.70
43561;DHT22;32305;46.410;17.394;2023-01-25T14:47:29;23.40;36.70
43561;DHT22;32305;46.410;17.394;2023-01-25T14:50:33;23.40;36.70
43561;DHT22;32305;46.410;17.394;2023-01-25T14:53:19;23.40;36.70
43561;DHT22;32305;46.410;17.394;2023-01-25T14:55:48;23.40;36.90
43561;DHT22;32305;46.410;17.394;2023-01-25T14:58:19;23.40;37.20
43561;DHT22;32305;46.410;17.394;2023-01-25T15:00:54;23.40;37.40
43561;DHT22;32305;46.410;17.394;2023-01-25T15:03:22;23.40;37.50
43561;DHT22;32305;46.410;17.394;2023-01-25T15:05:53;23.40;37.90
43561;DHT22;32305;46.410;17.394;2023-01-25T15:08:29;23.40;37.70
43561;DHT22;32305;46.410;17.394;2023-01-25T15:10:58;23.40;37.70
43561;DHT22;32305;46.410;17.394;2023-01-25T15:13:45;23.40;37.60
43561;DHT22;32305;46.410;17.394;2023-01-25T15:16:13;23.40;37.70
43561;DHT22;32305;46.410;17.394;2023-01-25T15:18:51;23.50;37.70
43561;DHT22;32305;46.410;17.394;2023-01-25T15:21:27;23.50;37.70
43561;DHT22;32305;46.410;17.394;2023-01-25T15:23:56;23.40;37.80
43561;DHT22;32305;46.410;17.394;2023-01-25T15:26:26;23.50;37.90
43561;DHT22;32305;46.410;17.394;2023-01-25T15:28:56;23.40;37.90
43561;DHT22;32305;46.410;17.394;2023-01-25T15:31:33;23.40;38.10
43561;DHT22;32305;46.410;17.394;2023-01-25T15:34:01;23.40;38.10
43561;DHT22;32305;46.410;17.394;2023-01-25T15:36:29;23.30;38.70
43561;DHT22;32305;46.410;17.394;2023-01-25T15:38:58;23.30;38.20
43561;DHT22;32305;46.410;17.394;2023-01-25T15:41:25;23.30;38.30
43561;DHT22;32305;46.410;17.394;2023-01-25T15:43:52;23.30;38.30
43561;DHT22;32305;46.410;17.394;2023-01-25T15:46:25;23.20;38.30
43561;DHT22;32305;46.410;17.394;2023-01-25T15:48:53;23.20;38.40
43561;DHT22;32305;46.410;17.394;2023-01-25T15:51:21;23.10;38.40
43561;DHT22;32305;46.410;17.394;2023-01-25T15:53:49;23.10;38.40
43561;DHT22;32305;46.410;17.394;2023-01-25T15:56:22;23.00;38.50
43561;DHT22;32305;46.410;17.394;2023-01-25T15:58:52;23.00;38.70
43561;DHT22;32305;46.410;17.394;2023-01-25T16:01:21;23.00;38.80